sensor_id;sensor_type;location;lat;lon;timestamp;P1;durP1;ratioP1;P2;durP2;ratioP2
49177;SDS011;35016;55.674;37.468;2023-08-24T00:02:03;11.45;;;5.00;;
49177;SDS011;35016;55.674;37.468;2023-08-24T00:04:30;9.68;;;6.53;;
49177;SDS011;35016;55.674;37.468;2023-08-24T00:06:57;14.13;;;6.70;;
49177;SDS011;35016;55.674;37.468;2023-08-24T00:09:25;12.77;;;5.72;;
49177;SDS011;35016;55.674;37.468;2023-08-24T00:11:53;14.95;;;7.10;;
49177;SDS011;35016;55.674;37.468;2023-08-24T00:14:20;37.63;;;9.07;;
49177;SDS011;35016;55.674;37.468;2023-08-24T00:16:47;22.42;;;7.28;;
49177;SDS011;35016;55.674;37.468;2023-08-24T00:19:14;14.50;;;7.53;;
49177;SDS011;35016;55.674;37.468;2023-08-24T00:21:41;12.60;;;7.35;;
49177;SDS011;35016;55.674;37.468;2023-08-24T00:24:08;15.43;;;7.90;;
49177;SDS011;35016;55.674;37.468;2023-08-24T00:26:35;13.18;;;7.65;;
49177;SDS011;35016;55.674;37.468;2023-08-24T00:29:03;12.20;;;6.65;;
49177;SDS011;35016;55.674;37.468;2023-08-24T00:31:30;12.05;;;6.15;;
49177;SDS011;35016;55.674;37.468;2023-08-24T00:33:59;13.10;;;7.50;;
49177;SDS011;35016;55.674;37.468;2023-08-24T00:36:26;11.55;;;6.53;;
49177;SDS011;35016;55.674;37.468;2023-08-24T00:38:53;11.93;;;6.68;;
49177;SDS011;35016;55.674;37.468;2023-08-24T00:41:21;13.15;;;7.50;;
49177;SDS011;35016;55.674;37.468;2023-08-24T00:43:51;12.23;;;7.40;;
49177;SDS011;35016;55.674;37.468;2023-08-24T00:46:18;11.57;;;7.05;;
49177;SDS011;35016;55.674;37.468;2023-08-24T00:48:46;11.68;;;6.20;;
49177;SDS011;35016;55.674;37.468;2023-08-24T00:51:14;11.70;;;6.78;;
49177;SDS011;35016;55.674;37.468;2023-08-24T00:53:41;12.70;;;7.03;;
49177;SDS011;35016;55.674;37.468;2023-08-24T00:56:08;12.05;;;6.55;;
49177;SDS011;35016;55.674;37.468;2023-08-24T00:58:38;11.93;;;6.40;;
49177;SDS011;35016;55.674;37.468;2023-08-24T01:01:06;12.45;;;7.70;;
49177;SDS011;35016;55.674;37.468;2023-08-24T01:03:34;11.68;;;6.80;;
49177;SDS011;35016;55.674;37.468;2023-08-24T01:06:01;12.63;;;7.25;;
49177;SDS011;35016;55.674;37.468;2023-08-24T01:08:28;12.70;;;7.43;;
49177;SDS011;35016;55.674;37.468;2023-08-24T01:13:52;14.75;;;7.03;;
49177;SDS011;35016;55.674;37.468;2023-08-24T01:16:41;11.30;;;6.53;;
49177;SDS011;35016;55.674;37.468;2023-08-24T01:19:18;12.30;;;7.32;;
49177;SDS011;35016;55.674;37.468;2023-08-24T01:22:02;11.30;;;6.28;;
49177;SDS011;35016;55.674;37.468;2023-08-24T01:24:47;11.40;;;6.47;;
49177;SDS011;35016;55.674;37.468;2023-08-24T01:27:26;12.53;;;6.87;;
49177;SDS011;35016;55.674;37.468;2023-08-24T01:29:56;12.23;;;6.43;;
49177;SDS011;35016;55.674;37.468;2023-08-24T01:32:24;11.93;;;7.15;;
49177;SDS011;35016;55.674;37.468;2023-08-24T01:34:51;12.75;;;7.38;;
49177;SDS011;35016;55.674;37.468;2023-08-24T01:37:18;14.80;;;7.47;;
49177;SDS011;35016;55.674;37.468;2023-08-24T01:39:49;11.45;;;7.15;;
49177;SDS011;35016;55.674;37.468;2023-08-24T01:42:25;9.95;;;5.53;;
49177;SDS011;35016;55.674;37.468;2023-08-24T01:44:58;14.25;;;7.38;;
49177;SDS011;35016;55.674;37.468;2023-08-24T01:47:29;17.77;;;7.57;;
49177;SDS011;35016;55.674;37.468;2023-08-24T01:49:59;12.35;;;8.18;;
49177;SDS011;35016;55.674;37.468;2023-08-24T01:52:28;11.18;;;7.32;;
49177;SDS011;35016;55.674;37.468;2023-08-24T01:54:56;18.98;;;8.23;;
49177;SDS011;35016;55.674;37.468;2023-08-24T01:57:24;13.95;;;7.50;;
49177;SDS011;35016;55.674;37.468;2023-08-24T01:59:51;13.55;;;7.60;;
49177;SDS011;35016;55.674;37.468;2023-08-24T02:02:18;11.93;;;7.22;;
49177;SDS011;35016;55.674;37.468;2023-08-24T02:04:47;10.98;;;5.45;;
49177;SDS011;35016;55.674;37.468;2023-08-24T02:07:15;12.50;;;6.80;;
49177;SDS011;35016;55.674;37.468;2023-08-24T02:09:42;12.55;;;6.65;;
49177;SDS011;35016;55.674;37.468;2023-08-24T02:12:09;11.95;;;5.85;;
49177;SDS011;35016;55.674;37.468;2023-08-24T02:14:37;12.63;;;5.10;;
49177;SDS011;35016;55.674;37.468;2023-08-24T02:17:24;9.57;;;4.15;;
49177;SDS011;35016;55.674;37.468;2023-08-24T02:19:52;9.75;;;4.50;;
49177;SDS011;35016;55.674;37.468;2023-08-24T02:22:20;12.30;;;6.50;;
49177;SDS011;35016;55.674;37.468;2023-08-24T02:24:47;9.50;;;4.57;;
49177;SDS011;35016;55.674;37.468;2023-08-24T02:27:14;11.10;;;5.78;;
49177;SDS011;35016;55.674;37.468;2023-08-24T02:29:41;9.38;;;4.88;;
49177;SDS011;35016;55.674;37.468;2023-08-24T02:32:08;10.48;;;5.22;;
49177;SDS011;35016;55.674;37.468;2023-08-24T02:34:35;8.93;;;4.22;;
49177;SDS011;35016;55.674;37.468;2023-08-24T02:37:02;11.68;;;4.38;;
49177;SDS011;35016;55.674;37.468;2023-08-24T02:39:29;11.15;;;4.30;;
49177;SDS011;35016;55.674;37.468;2023-08-24T02:41:57;9.48;;;4.75;;
49177;SDS011;35016;55.674;37.468;2023-08-24T02:44:24;10.05;;;4.07;;
49177;SDS011;35016;55.674;37.468;2023-08-24T02:46:51;8.75;;;3.30;;
49177;SDS011;35016;55.674;37.468;2023-08-24T02:49:18;7.78;;;3.25;;
49177;SDS011;35016;55.674;37.468;2023-08-24T02:51:45;10.02;;;4.90;;
49177;SDS011;35016;55.674;37.468;2023-08-24T02:54:12;9.18;;;4.47;;
49177;SDS011;35016;55.674;37.468;2023-08-24T02:56:40;11.65;;;5.50;;
49177;SDS011;35016;55.674;37.468;2023-08-24T02:59:08;11.73;;;6.78;;
49177;SDS011;35016;55.674;37.468;2023-08-24T03:01:35;9.45;;;5.10;;
49177;SDS011;35016;55.674;37.468;2023-08-24T03:04:05;10.45;;;5.15;;
49177;SDS011;35016;55.674;37.468;2023-08-24T03:06:32;10.70;;;5.18;;
49177;SDS011;35016;55.674;37.468;2023-08-24T03:09:00;10.93;;;5.15;;
49177;SDS011;35016;55.674;37.468;2023-08-24T03:11:30;10.65;;;5.88;;
49177;SDS011;35016;55.674;37.468;2023-08-24T03:13:58;10.15;;;5.28;;
49177;SDS011;35016;55.674;37.468;2023-08-24T03:16:25;12.15;;;4.63;;
49177;SDS011;35016;55.674;37.468;2023-08-24T03:18:53;12.02;;;6.10;;
49177;SDS011;35016;55.674;37.468;2023-08-24T03:21:24;11.30;;;6.47;;
49177;SDS011;35016;55.674;37.468;2023-08-24T03:23:52;9.50;;;4.63;;
49177;SDS011;35016;55.674;37.468;2023-08-24T03:26:19;10.43;;;5.28;;
49177;SDS011;35016;55.674;37.468;2023-08-24T03:28:47;12.35;;;5.93;;
49177;SDS011;35016;55.674;37.468;2023-08-24T03:31:14;10.68;;;4.93;;
49177;SDS011;35016;55.674;37.468;2023-08-24T03:33:41;10.20;;;5.18;;
49177;SDS011;35016;55.674;37.468;2023-08-24T03:36:09;9.25;;;4.53;;
49177;SDS011;35016;55.674;37.468;2023-08-24T03:38:36;10.40;;;5.88;;
49177;SDS011;35016;55.674;37.468;2023-08-24T03:41:04;12.95;;;5.60;;
49177;SDS011;35016;55.674;37.468;2023-08-24T03:43:33;11.40;;;5.18;;
49177;SDS011;35016;55.674;37.468;2023-08-24T03:46:02;10.63;;;5.30;;
49177;SDS011;35016;55.674;37.468;2023-08-24T03:48:31;10.73;;;4.95;;
49177;SDS011;35016;55.674;37.468;2023-08-24T03:50:59;10.95;;;5.47;;
49177;SDS011;35016;55.674;37.468;2023-08-24T03:53:26;11.18;;;5.72;;
49177;SDS011;35016;55.674;37.468;2023-08-24T03:55:54;11.02;;;5.20;;
49177;SDS011;35016;55.674;37.468;2023-08-24T03:58:21;9.80;;;4.43;;
49177;SDS011;35016;55.674;37.468;2023-08-24T04:00:48;9.30;;;4.40;;
49177;SDS011;35016;55.674;37.468;2023-08-24T04:03:15;13.48;;;7.10;;
49177;SDS011;35016;55.674;37.468;2023-08-24T04:05:43;9.90;;;4.80;;
49177;SDS011;35016;55.674;37.468;2023-08-24T04:08:10;11.40;;;5.35;;
49177;SDS011;35016;55.674;37.468;2023-08-24T04:10:38;9.02;;;4.43;;
49177;SDS011;35016;55.674;37.468;2023-08-24T04:13:05;10.02;;;4.40;;
49177;SDS011;35016;55.674;37.468;2023-08-24T04:15:32;9.93;;;4.63;;
49177;SDS011;35016;55.674;37.468;2023-08-24T04:17:59;8.32;;;4.00;;
49177;SDS011;35016;55.674;37.468;2023-08-24T04:20:26;9.07;;;4.43;;
49177;SDS011;35016;55.674;37.468;2023-08-24T04:22:54;8.43;;;3.88;;
49177;SDS011;35016;55.674;37.468;2023-08-24T04:25:21;8.70;;;4.03;;
49177;SDS011;35016;55.674;37.468;2023-08-24T04:27:48;9.75;;;4.25;;
49177;SDS011;35016;55.674;37.468;2023-08-24T04:30:16;8.82;;;4.38;;
49177;SDS011;35016;55.674;37.468;2023-08-24T04:32:43;8.32;;;4.00;;
49177;SDS011;35016;55.674;37.468;2023-08-24T04:35:10;9.50;;;4.45;;
49177;SDS011;35016;55.674;37.468;2023-08-24T04:37:37;8.68;;;4.22;;
49177;SDS011;35016;55.674;37.468;2023-08-24T04:40:06;9.85;;;4.30;;
49177;SDS011;35016;55.674;37.468;2023-08-24T04:42:37;12.13;;;5.30;;
49177;SDS011;35016;55.674;37.468;2023-08-24T04:45:04;8.43;;;4.55;;
49177;SDS011;35016;55.674;37.468;2023-08-24T04:47:32;10.07;;;4.50;;
49177;SDS011;35016;55.674;37.468;2023-08-24T04:49:59;8.52;;;4.80;;
49177;SDS011;35016;55.674;37.468;2023-08-24T04:52:26;11.10;;;4.72;;
49177;SDS011;35016;55.674;37.468;2023-08-24T04:54:53;8.82;;;5.03;;
49177;SDS011;35016;55.674;37.468;2023-08-24T04:57:20;9.13;;;4.60;;
49177;SDS011;35016;55.674;37.468;2023-08-24T04:59:50;9.43;;;4.60;;
49177;SDS011;35016;55.674;37.468;2023-08-24T05:02:17;9.55;;;4.20;;
49177;SDS011;35016;55.674;37.468;2023-08-24T05:04:44;9.25;;;4.50;;
49177;SDS011;35016;55.674;37.468;2023-08-24T05:07:11;9.32;;;5.13;;
49177;SDS011;35016;55.674;37.468;2023-08-24T05:09:38;9.57;;;4.63;;
49177;SDS011;35016;55.674;37.468;2023-08-24T05:12:05;10.23;;;5.78;;
49177;SDS011;35016;55.674;37.468;2023-08-24T05:14:32;10.38;;;4.38;;
49177;SDS011;35016;55.674;37.468;2023-08-24T05:17:01;9.07;;;4.28;;
49177;SDS011;35016;55.674;37.468;2023-08-24T05:19:28;9.13;;;4.25;;
49177;SDS011;35016;55.674;37.468;2023-08-24T05:21:55;9.18;;;4.95;;
49177;SDS011;35016;55.674;37.468;2023-08-24T05:24:22;9.50;;;4.20;;
49177;SDS011;35016;55.674;37.468;2023-08-24T05:26:49;8.75;;;4.38;;
49177;SDS011;35016;55.674;37.468;2023-08-24T05:29:17;10.30;;;3.80;;
49177;SDS011;35016;55.674;37.468;2023-08-24T05:31:43;9.50;;;5.15;;
49177;SDS011;35016;55.674;37.468;2023-08-24T05:34:10;8.18;;;4.18;;
49177;SDS011;35016;55.674;37.468;2023-08-24T05:36:38;10.10;;;5.53;;
49177;SDS011;35016;55.674;37.468;2023-08-24T05:39:05;9.80;;;5.30;;
49177;SDS011;35016;55.674;37.468;2023-08-24T05:41:32;9.13;;;5.40;;
49177;SDS011;35016;55.674;37.468;2023-08-24T05:43:59;11.55;;;5.97;;
49177;SDS011;35016;55.674;37.468;2023-08-24T05:46:28;11.52;;;6.40;;
49177;SDS011;35016;55.674;37.468;2023-08-24T05:48:55;13.82;;;5.90;;
49177;SDS011;35016;55.674;37.468;2023-08-24T05:51:25;10.70;;;5.97;;
49177;SDS011;35016;55.674;37.468;2023-08-24T05:53:54;14.55;;;6.03;;
49177;SDS011;35016;55.674;37.468;2023-08-24T05:56:26;9.60;;;5.20;;
49177;SDS011;35016;55.674;37.468;2023-08-24T05:58:54;11.50;;;6.32;;
49177;SDS011;35016;55.674;37.468;2023-08-24T06:01:21;10.48;;;5.20;;
49177;SDS011;35016;55.674;37.468;2023-08-24T06:03:48;9.65;;;5.93;;
49177;SDS011;35016;55.674;37.468;2023-08-24T06:06:16;10.00;;;4.68;;
49177;SDS011;35016;55.674;37.468;2023-08-24T06:08:43;8.50;;;4.57;;
49177;SDS011;35016;55.674;37.468;2023-08-24T06:11:10;8.55;;;4.93;;
49177;SDS011;35016;55.674;37.468;2023-08-24T06:13:38;11.23;;;5.53;;
49177;SDS011;35016;55.674;37.468;2023-08-24T06:16:04;10.20;;;4.60;;
49177;SDS011;35016;55.674;37.468;2023-08-24T06:18:31;10.48;;;5.72;;
49177;SDS011;35016;55.674;37.468;2023-08-24T06:20:59;10.55;;;5.05;;
49177;SDS011;35016;55.674;37.468;2023-08-24T06:23:25;11.15;;;5.95;;
49177;SDS011;35016;55.674;37.468;2023-08-24T06:25:53;9.77;;;5.03;;
49177;SDS011;35016;55.674;37.468;2023-08-24T06:28:20;7.97;;;3.90;;
49177;SDS011;35016;55.674;37.468;2023-08-24T06:30:47;9.57;;;5.05;;
49177;SDS011;35016;55.674;37.468;2023-08-24T06:33:16;10.45;;;5.07;;
49177;SDS011;35016;55.674;37.468;2023-08-24T06:35:44;9.85;;;5.22;;
49177;SDS011;35016;55.674;37.468;2023-08-24T06:38:11;12.55;;;6.35;;
49177;SDS011;35016;55.674;37.468;2023-08-24T06:40:38;11.18;;;7.63;;
49177;SDS011;35016;55.674;37.468;2023-08-24T06:43:05;16.17;;;11.15;;
49177;SDS011;35016;55.674;37.468;2023-08-24T06:45:32;15.40;;;10.32;;
49177;SDS011;35016;55.674;37.468;2023-08-24T06:47:59;13.32;;;9.88;;
49177;SDS011;35016;55.674;37.468;2023-08-24T06:50:27;15.25;;;10.18;;
49177;SDS011;35016;55.674;37.468;2023-08-24T06:52:54;13.25;;;9.90;;
49177;SDS011;35016;55.674;37.468;2023-08-24T06:55:21;28.33;;;14.77;;
49177;SDS011;35016;55.674;37.468;2023-08-24T06:57:48;63.13;;;20.98;;
49177;SDS011;35016;55.674;37.468;2023-08-24T07:00:19;69.95;;;27.35;;
49177;SDS011;35016;55.674;37.468;2023-08-24T07:02:50;19.67;;;11.25;;
49177;SDS011;35016;55.674;37.468;2023-08-24T07:05:17;43.97;;;16.67;;
49177;SDS011;35016;55.674;37.468;2023-08-24T07:07:49;15.48;;;10.77;;
49177;SDS011;35016;55.674;37.468;2023-08-24T07:10:17;14.25;;;9.63;;
49177;SDS011;35016;55.674;37.468;2023-08-24T07:12:45;16.70;;;8.25;;
49177;SDS011;35016;55.674;37.468;2023-08-24T07:15:13;19.05;;;8.65;;
49177;SDS011;35016;55.674;37.468;2023-08-24T07:17:40;13.10;;;8.90;;
49177;SDS011;35016;55.674;37.468;2023-08-24T07:20:08;12.13;;;7.90;;
49177;SDS011;35016;55.674;37.468;2023-08-24T07:22:35;12.65;;;8.02;;
49177;SDS011;35016;55.674;37.468;2023-08-24T07:25:03;13.80;;;10.00;;
49177;SDS011;35016;55.674;37.468;2023-08-24T07:27:32;13.93;;;9.02;;
49177;SDS011;35016;55.674;37.468;2023-08-24T07:30:01;14.23;;;10.63;;
49177;SDS011;35016;55.674;37.468;2023-08-24T07:32:58;15.63;;;10.23;;
49177;SDS011;35016;55.674;37.468;2023-08-24T07:35:25;12.65;;;9.63;;
49177;SDS011;35016;55.674;37.468;2023-08-24T07:37:53;16.35;;;11.25;;
49177;SDS011;35016;55.674;37.468;2023-08-24T07:40:20;17.67;;;11.18;;
49177;SDS011;35016;55.674;37.468;2023-08-24T07:42:48;15.40;;;10.85;;
49177;SDS011;35016;55.674;37.468;2023-08-24T07:45:21;14.63;;;10.55;;
49177;SDS011;35016;55.674;37.468;2023-08-24T07:47:50;16.17;;;11.25;;
49177;SDS011;35016;55.674;37.468;2023-08-24T07:50:17;19.50;;;10.38;;
49177;SDS011;35016;55.674;37.468;2023-08-24T07:52:45;14.95;;;10.00;;
49177;SDS011;35016;55.674;37.468;2023-08-24T07:55:12;13.38;;;9.88;;
49177;SDS011;35016;55.674;37.468;2023-08-24T07:57:39;14.30;;;10.40;;
49177;SDS011;35016;55.674;37.468;2023-08-24T08:00:06;13.32;;;9.55;;
49177;SDS011;35016;55.674;37.468;2023-08-24T08:02:38;13.75;;;8.98;;
49177;SDS011;35016;55.674;37.468;2023-08-24T08:05:06;12.73;;;8.13;;
49177;SDS011;35016;55.674;37.468;2023-08-24T08:07:39;12.55;;;8.68;;
49177;SDS011;35016;55.674;37.468;2023-08-24T08:10:06;15.93;;;8.48;;
49177;SDS011;35016;55.674;37.468;2023-08-24T08:12:35;13.82;;;8.95;;
49177;SDS011;35016;55.674;37.468;2023-08-24T08:15:02;14.85;;;9.80;;
49177;SDS011;35016;55.674;37.468;2023-08-24T08:17:31;18.08;;;10.57;;
49177;SDS011;35016;55.674;37.468;2023-08-24T08:20:00;12.65;;;8.48;;
49177;SDS011;35016;55.674;37.468;2023-08-24T08:22:29;13.90;;;9.80;;
49177;SDS011;35016;55.674;37.468;2023-08-24T08:24:56;13.63;;;9.00;;
49177;SDS011;35016;55.674;37.468;2023-08-24T08:27:24;14.30;;;9.43;;
49177;SDS011;35016;55.674;37.468;2023-08-24T08:29:51;14.55;;;10.27;;
49177;SDS011;35016;55.674;37.468;2023-08-24T08:32:18;17.85;;;12.02;;
49177;SDS011;35016;55.674;37.468;2023-08-24T08:34:45;17.13;;;11.55;;
49177;SDS011;35016;55.674;37.468;2023-08-24T08:37:12;15.70;;;10.15;;
49177;SDS011;35016;55.674;37.468;2023-08-24T08:39:39;20.67;;;12.20;;
49177;SDS011;35016;55.674;37.468;2023-08-24T08:42:11;13.88;;;10.15;;
49177;SDS011;35016;55.674;37.468;2023-08-24T08:44:39;13.10;;;9.90;;
49177;SDS011;35016;55.674;37.468;2023-08-24T08:47:09;19.65;;;11.48;;
49177;SDS011;35016;55.674;37.468;2023-08-24T08:49:41;14.15;;;11.15;;
49177;SDS011;35016;55.674;37.468;2023-08-24T08:52:09;16.92;;;10.60;;
49177;SDS011;35016;55.674;37.468;2023-08-24T08:54:37;13.95;;;10.52;;
49177;SDS011;35016;55.674;37.468;2023-08-24T08:57:04;15.35;;;9.52;;
49177;SDS011;35016;55.674;37.468;2023-08-24T08:59:31;13.68;;;9.52;;
49177;SDS011;35016;55.674;37.468;2023-08-24T09:02:00;14.27;;;9.68;;
49177;SDS011;35016;55.674;37.468;2023-08-24T09:04:31;15.60;;;8.98;;
49177;SDS011;35016;55.674;37.468;2023-08-24T09:07:00;12.38;;;9.02;;
49177;SDS011;35016;55.674;37.468;2023-08-24T09:09:31;12.75;;;8.02;;
49177;SDS011;35016;55.674;37.468;2023-08-24T09:11:59;13.38;;;8.93;;
49177;SDS011;35016;55.674;37.468;2023-08-24T09:14:27;16.45;;;9.93;;
49177;SDS011;35016;55.674;37.468;2023-08-24T09:16:54;15.95;;;10.27;;
49177;SDS011;35016;55.674;37.468;2023-08-24T09:19:27;13.10;;;10.05;;
49177;SDS011;35016;55.674;37.468;2023-08-24T09:21:59;12.98;;;8.88;;
49177;SDS011;35016;55.674;37.468;2023-08-24T09:27:14;15.73;;;9.80;;
49177;SDS011;35016;55.674;37.468;2023-08-24T09:29:47;17.52;;;10.93;;
49177;SDS011;35016;55.674;37.468;2023-08-24T09:32:21;13.57;;;8.35;;
49177;SDS011;35016;55.674;37.468;2023-08-24T09:34:54;15.73;;;10.60;;
49177;SDS011;35016;55.674;37.468;2023-08-24T09:37:21;15.27;;;10.10;;
49177;SDS011;35016;55.674;37.468;2023-08-24T09:39:48;16.30;;;9.85;;
49177;SDS011;35016;55.674;37.468;2023-08-24T09:42:16;12.23;;;10.27;;
49177;SDS011;35016;55.674;37.468;2023-08-24T09:44:54;13.40;;;9.80;;
49177;SDS011;35016;55.674;37.468;2023-08-24T09:47:29;12.95;;;10.15;;
49177;SDS011;35016;55.674;37.468;2023-08-24T09:49:57;13.45;;;10.48;;
49177;SDS011;35016;55.674;37.468;2023-08-24T09:52:23;16.25;;;11.48;;
49177;SDS011;35016;55.674;37.468;2023-08-24T09:54:55;13.50;;;9.75;;
49177;SDS011;35016;55.674;37.468;2023-08-24T09:57:22;13.40;;;10.25;;
49177;SDS011;35016;55.674;37.468;2023-08-24T09:59:49;14.32;;;11.18;;
49177;SDS011;35016;55.674;37.468;2023-08-24T10:02:20;14.63;;;10.75;;
49177;SDS011;35016;55.674;37.468;2023-08-24T10:04:53;12.43;;;9.93;;
49177;SDS011;35016;55.674;37.468;2023-08-24T10:07:22;14.65;;;9.80;;
49177;SDS011;35016;55.674;37.468;2023-08-24T10:09:58;13.70;;;9.25;;
49177;SDS011;35016;55.674;37.468;2023-08-24T10:12:36;15.38;;;10.10;;
49177;SDS011;35016;55.674;37.468;2023-08-24T10:15:08;11.93;;;9.18;;
49177;SDS011;35016;55.674;37.468;2023-08-24T10:17:38;14.50;;;9.32;;
49177;SDS011;35016;55.674;37.468;2023-08-24T10:20:06;12.73;;;9.73;;
49177;SDS011;35016;55.674;37.468;2023-08-24T10:22:36;12.80;;;8.70;;
49177;SDS011;35016;55.674;37.468;2023-08-24T10:25:07;13.52;;;10.00;;
49177;SDS011;35016;55.674;37.468;2023-08-24T10:27:35;11.98;;;8.02;;
49177;SDS011;35016;55.674;37.468;2023-08-24T10:30:04;14.55;;;10.43;;
49177;SDS011;35016;55.674;37.468;2023-08-24T10:32:32;14.55;;;10.45;;
49177;SDS011;35016;55.674;37.468;2023-08-24T10:34:59;16.33;;;10.07;;
49177;SDS011;35016;55.674;37.468;2023-08-24T10:37:27;13.77;;;10.32;;
49177;SDS011;35016;55.674;37.468;2023-08-24T10:39:54;12.20;;;8.70;;
49177;SDS011;35016;55.674;37.468;2023-08-24T10:42:21;13.00;;;9.07;;
49177;SDS011;35016;55.674;37.468;2023-08-24T10:44:48;13.63;;;10.00;;
49177;SDS011;35016;55.674;37.468;2023-08-24T10:52:32;12.85;;;8.13;;
49177;SDS011;35016;55.674;37.468;2023-08-24T10:55:00;13.25;;;8.50;;
49177;SDS011;35016;55.674;37.468;2023-08-24T10:57:37;12.55;;;8.68;;
49177;SDS011;35016;55.674;37.468;2023-08-24T11:05:20;11.43;;;7.95;;
49177;SDS011;35016;55.674;37.468;2023-08-24T11:10:20;12.48;;;7.82;;
49177;SDS011;35016;55.674;37.468;2023-08-24T11:15:31;11.25;;;6.88;;
49177;SDS011;35016;55.674;37.468;2023-08-24T11:18:12;11.73;;;7.47;;
49177;SDS011;35016;55.674;37.468;2023-08-24T11:20:46;10.10;;;6.13;;
49177;SDS011;35016;55.674;37.468;2023-08-24T11:23:17;11.35;;;7.15;;
49177;SDS011;35016;55.674;37.468;2023-08-24T11:25:45;10.82;;;6.70;;
49177;SDS011;35016;55.674;37.468;2023-08-24T11:28:16;11.98;;;7.13;;
49177;SDS011;35016;55.674;37.468;2023-08-24T11:30:46;12.48;;;6.80;;
49177;SDS011;35016;55.674;37.468;2023-08-24T11:33:14;10.80;;;6.63;;
49177;SDS011;35016;55.674;37.468;2023-08-24T11:35:42;11.98;;;7.18;;
49177;SDS011;35016;55.674;37.468;2023-08-24T11:38:10;11.75;;;6.65;;
49177;SDS011;35016;55.674;37.468;2023-08-24T11:40:38;11.50;;;6.55;;
49177;SDS011;35016;55.674;37.468;2023-08-24T11:43:05;11.10;;;6.40;;
49177;SDS011;35016;55.674;37.468;2023-08-24T11:45:34;11.38;;;6.00;;
49177;SDS011;35016;55.674;37.468;2023-08-24T11:48:08;11.15;;;5.68;;
49177;SDS011;35016;55.674;37.468;2023-08-24T11:50:37;12.45;;;5.22;;
49177;SDS011;35016;55.674;37.468;2023-08-24T11:53:06;12.02;;;6.43;;
49177;SDS011;35016;55.674;37.468;2023-08-24T11:55:33;10.07;;;5.18;;
49177;SDS011;35016;55.674;37.468;2023-08-24T11:58:19;9.50;;;4.95;;
49177;SDS011;35016;55.674;37.468;2023-08-24T12:00:47;8.48;;;4.18;;
49177;SDS011;35016;55.674;37.468;2023-08-24T12:03:14;9.88;;;4.53;;
49177;SDS011;35016;55.674;37.468;2023-08-24T12:05:42;9.27;;;4.60;;
49177;SDS011;35016;55.674;37.468;2023-08-24T12:08:10;10.20;;;5.60;;
49177;SDS011;35016;55.674;37.468;2023-08-24T12:10:42;9.80;;;4.47;;
49177;SDS011;35016;55.674;37.468;2023-08-24T12:13:09;12.90;;;5.00;;
49177;SDS011;35016;55.674;37.468;2023-08-24T12:15:38;8.52;;;5.03;;
49177;SDS011;35016;55.674;37.468;2023-08-24T12:18:11;10.60;;;4.18;;
49177;SDS011;35016;55.674;37.468;2023-08-24T12:20:42;9.82;;;4.80;;
49177;SDS011;35016;55.674;37.468;2023-08-24T12:23:09;9.77;;;5.22;;
49177;SDS011;35016;55.674;37.468;2023-08-24T12:25:38;8.98;;;4.05;;
49177;SDS011;35016;55.674;37.468;2023-08-24T12:28:10;8.32;;;4.43;;
49177;SDS011;35016;55.674;37.468;2023-08-24T12:30:48;19.25;;;5.85;;
49177;SDS011;35016;55.674;37.468;2023-08-24T12:33:21;9.77;;;4.55;;
49177;SDS011;35016;55.674;37.468;2023-08-24T12:35:49;10.10;;;4.70;;
49177;SDS011;35016;55.674;37.468;2023-08-24T12:38:17;9.18;;;4.32;;
49177;SDS011;35016;55.674;37.468;2023-08-24T12:40:44;9.00;;;3.85;;
49177;SDS011;35016;55.674;37.468;2023-08-24T12:43:12;8.65;;;4.10;;
49177;SDS011;35016;55.674;37.468;2023-08-24T12:45:39;11.02;;;4.30;;
49177;SDS011;35016;55.674;37.468;2023-08-24T12:48:07;10.30;;;3.40;;
49177;SDS011;35016;55.674;37.468;2023-08-24T12:50:34;9.65;;;4.88;;
49177;SDS011;35016;55.674;37.468;2023-08-24T12:53:02;10.57;;;4.57;;
49177;SDS011;35016;55.674;37.468;2023-08-24T12:55:33;11.85;;;5.07;;
49177;SDS011;35016;55.674;37.468;2023-08-24T12:58:01;8.75;;;4.22;;
49177;SDS011;35016;55.674;37.468;2023-08-24T13:00:30;8.10;;;3.88;;
49177;SDS011;35016;55.674;37.468;2023-08-24T13:02:57;9.80;;;4.10;;
49177;SDS011;35016;55.674;37.468;2023-08-24T13:05:24;10.20;;;4.70;;
49177;SDS011;35016;55.674;37.468;2023-08-24T13:07:51;9.27;;;3.60;;
49177;SDS011;35016;55.674;37.468;2023-08-24T13:10:19;10.50;;;4.00;;
49177;SDS011;35016;55.674;37.468;2023-08-24T13:12:46;11.90;;;3.42;;
49177;SDS011;35016;55.674;37.468;2023-08-24T13:15:13;8.55;;;3.35;;
49177;SDS011;35016;55.674;37.468;2023-08-24T13:17:41;8.38;;;3.58;;
49177;SDS011;35016;55.674;37.468;2023-08-24T13:20:09;7.22;;;2.88;;
49177;SDS011;35016;55.674;37.468;2023-08-24T13:22:36;8.55;;;3.85;;
49177;SDS011;35016;55.674;37.468;2023-08-24T13:25:04;6.88;;;2.92;;
49177;SDS011;35016;55.674;37.468;2023-08-24T13:27:31;7.05;;;2.83;;
49177;SDS011;35016;55.674;37.468;2023-08-24T13:30:01;7.30;;;2.63;;
49177;SDS011;35016;55.674;37.468;2023-08-24T13:32:29;7.80;;;2.88;;
49177;SDS011;35016;55.674;37.468;2023-08-24T13:34:56;8.02;;;3.38;;
49177;SDS011;35016;55.674;37.468;2023-08-24T13:37:23;8.98;;;2.38;;
49177;SDS011;35016;55.674;37.468;2023-08-24T13:39:51;10.23;;;3.78;;
49177;SDS011;35016;55.674;37.468;2023-08-24T13:42:17;6.50;;;2.58;;
49177;SDS011;35016;55.674;37.468;2023-08-24T13:44:46;8.13;;;2.60;;
49177;SDS011;35016;55.674;37.468;2023-08-24T13:47:13;5.28;;;1.83;;
49177;SDS011;35016;55.674;37.468;2023-08-24T13:49:40;7.78;;;2.22;;
49177;SDS011;35016;55.674;37.468;2023-08-24T13:52:08;7.53;;;1.92;;
49177;SDS011;35016;55.674;37.468;2023-08-24T13:54:35;9.68;;;4.05;;
49177;SDS011;35016;55.674;37.468;2023-08-24T13:57:02;6.30;;;2.33;;
49177;SDS011;35016;55.674;37.468;2023-08-24T13:59:29;7.10;;;2.30;;
49177;SDS011;35016;55.674;37.468;2023-08-24T14:01:56;7.40;;;2.75;;
49177;SDS011;35016;55.674;37.468;2023-08-24T14:04:23;8.70;;;2.40;;
49177;SDS011;35016;55.674;37.468;2023-08-24T14:06:50;6.03;;;1.67;;
49177;SDS011;35016;55.674;37.468;2023-08-24T14:09:17;6.28;;;2.13;;
49177;SDS011;35016;55.674;37.468;2023-08-24T14:11:44;6.72;;;2.20;;
49177;SDS011;35016;55.674;37.468;2023-08-24T14:14:11;5.07;;;1.60;;
49177;SDS011;35016;55.674;37.468;2023-08-24T14:16:38;8.65;;;3.20;;
49177;SDS011;35016;55.674;37.468;2023-08-24T14:19:05;7.70;;;2.80;;
49177;SDS011;35016;55.674;37.468;2023-08-24T14:21:33;9.23;;;3.10;;
49177;SDS011;35016;55.674;37.468;2023-08-24T14:24:10;7.63;;;2.45;;
49177;SDS011;35016;55.674;37.468;2023-08-24T14:26:38;8.18;;;2.72;;
49177;SDS011;35016;55.674;37.468;2023-08-24T14:29:06;8.65;;;3.55;;
49177;SDS011;35016;55.674;37.468;2023-08-24T14:31:33;6.75;;;2.80;;
49177;SDS011;35016;55.674;37.468;2023-08-24T14:34:00;7.40;;;2.72;;
49177;SDS011;35016;55.674;37.468;2023-08-24T14:36:27;7.18;;;2.30;;
49177;SDS011;35016;55.674;37.468;2023-08-24T14:38:55;6.32;;;2.50;;
49177;SDS011;35016;55.674;37.468;2023-08-24T14:41:22;8.65;;;3.35;;
49177;SDS011;35016;55.674;37.468;2023-08-24T14:43:49;8.13;;;3.03;;
49177;SDS011;35016;55.674;37.468;2023-08-24T14:46:16;8.15;;;2.70;;
49177;SDS011;35016;55.674;37.468;2023-08-24T14:48:43;8.75;;;3.60;;
49177;SDS011;35016;55.674;37.468;2023-08-24T14:51:10;9.38;;;2.53;;
49177;SDS011;35016;55.674;37.468;2023-08-24T14:53:37;8.35;;;3.30;;